Attapulgus, Georgia
Current Conditions -  °F | °C
As of 10:55 AM on Thursday 27 Nov 2014 (Local Time) from K2J9 Reporting Station
Clear Clear  
Wind Chill: 57°   Ceiling: Unl
Heat Index: 57°   Visibility: 10mi
Dew Point: 32°   Wind: 9mph
Humidity: 38%   Direction: 320°NW
Pressure: 30.34"   Gusts: 20mph
Location:  30.75°N, 84.48°W
Report Text: K2J9 271555Z AUTO 32008G17KT 10SM CLR 14/00 A3034 RMK AO1
Loading
Personal Weather Stations






























Interactive Weather Map New forecast layout! Learn more

10-Day Weather Forecast

Advertisements
Track Severe Weather on mobile